createdAt,value
2017-08-09T00:00:02.172Z,17.60
2017-08-09T00:02:30.624Z,17.50
2017-08-09T00:05:00.323Z,17.50
2017-08-09T00:07:30.149Z,17.50
2017-08-09T00:09:58.932Z,17.50
2017-08-09T00:12:28.429Z,17.50
2017-08-09T00:14:57.022Z,17.40
2017-08-09T00:17:25.604Z,17.40
2017-08-09T00:19:54.207Z,17.40
2017-08-09T00:22:23.391Z,17.40
2017-08-09T00:24:52.421Z,17.40
2017-08-09T00:27:21.806Z,17.40
2017-08-09T00:29:51.344Z,17.40
2017-08-09T00:32:21.224Z,17.30
2017-08-09T00:34:50.164Z,17.40
2017-08-09T00:37:19.201Z,17.30
2017-08-09T00:39:47.559Z,17.30
2017-08-09T00:42:15.963Z,17.30
2017-08-09T00:44:44.697Z,17.30
2017-08-09T00:47:13.027Z,17.40
2017-08-09T00:49:41.352Z,17.40
2017-08-09T00:52:10.781Z,17.40
2017-08-09T00:54:39.120Z,17.30
2017-08-09T00:57:07.516Z,17.40
2017-08-09T00:59:36.563Z,17.40
2017-08-09T01:02:04.889Z,17.40
2017-08-09T01:04:34.045Z,17.30
2017-08-09T01:07:03.098Z,17.30
2017-08-09T01:09:31.876Z,17.30
2017-08-09T01:12:00.306Z,17.30
2017-08-09T01:14:29.745Z,17.30
2017-08-09T01:16:58.307Z,17.30
2017-08-09T01:19:28.491Z,17.20
2017-08-09T01:21:57.270Z,17.20
2017-08-09T01:24:25.822Z,17.20
2017-08-09T01:26:54.550Z,17.10
2017-08-09T01:29:25.046Z,17.10
2017-08-09T01:31:53.559Z,17.10
2017-08-09T01:34:23.853Z,17.10
2017-08-09T01:36:53.944Z,17.00
2017-08-09T01:39:23.524Z,17.00
2017-08-09T01:41:52.895Z,17.00
2017-08-09T01:44:22.253Z,17.00
2017-08-09T01:46:52.300Z,17.00
2017-08-09T01:49:21.379Z,16.90
2017-08-09T01:51:52.078Z,16.90
2017-08-09T01:54:21.608Z,16.90
2017-08-09T01:56:52.118Z,16.90
2017-08-09T01:59:21.238Z,17.00
2017-08-09T02:01:50.020Z,17.00
2017-08-09T02:04:18.627Z,17.10
2017-08-09T02:06:47.511Z,17.10
2017-08-09T02:09:17.178Z,17.10
2017-08-09T02:11:46.337Z,17.10
2017-08-09T02:14:14.854Z,17.10
2017-08-09T02:16:43.400Z,17.10
2017-08-09T02:19:11.736Z,17.10
2017-08-09T02:21:40.503Z,17.10
2017-08-09T02:24:08.848Z,17.10
2017-08-09T02:26:37.203Z,17.10
2017-08-09T02:29:05.996Z,17.10
2017-08-09T02:31:34.346Z,17.10
2017-08-09T02:34:02.700Z,17.10
2017-08-09T02:36:32.542Z,17.10
2017-08-09T02:39:01.265Z,17.10
2017-08-09T02:41:30.836Z,17.10
2017-08-09T02:44:00.147Z,17.10
2017-08-09T02:46:28.884Z,17.10
2017-08-09T02:48:57.410Z,17.10
2017-08-09T02:51:26.606Z,17.10
2017-08-09T02:53:56.791Z,17.10
2017-08-09T02:56:25.476Z,17.10
2017-08-09T02:58:55.389Z,17.10
2017-08-09T03:01:23.946Z,17.10
2017-08-09T03:03:52.826Z,17.10
2017-08-09T03:06:22.642Z,17.10
2017-08-09T03:08:53.140Z,17.00
2017-08-09T03:11:23.116Z,17.00
2017-08-09T03:13:52.569Z,17.00
2017-08-09T03:16:22.808Z,17.00
2017-08-09T03:18:54.757Z,17.00
2017-08-09T03:21:24.151Z,17.00
2017-08-09T03:23:53.106Z,17.00
2017-08-09T03:26:22.655Z,17.00
2017-08-09T03:28:53.155Z,16.90
2017-08-09T03:31:23.850Z,16.90
2017-08-09T03:33:54.446Z,17.00
2017-08-09T03:36:23.693Z,17.00
2017-08-09T03:38:53.833Z,17.00
2017-08-09T03:41:22.742Z,17.00
2017-08-09T03:43:52.407Z,17.00
2017-08-09T03:46:22.459Z,17.00
2017-08-09T03:48:53.463Z,17.00
2017-08-09T03:51:24.661Z,17.00
2017-08-09T03:53:53.353Z,16.90
2017-08-09T03:56:23.777Z,16.90
2017-08-09T03:58:54.608Z,16.80
2017-08-09T04:01:25.520Z,16.80
2017-08-09T04:03:55.364Z,16.80
2017-08-09T04:06:24.877Z,16.80
2017-08-09T04:08:54.194Z,16.80
2017-08-09T04:11:23.944Z,16.70
2017-08-09T04:13:53.171Z,16.70
2017-08-09T04:16:22.585Z,16.60
2017-08-09T04:18:54.965Z,16.60
2017-08-09T04:21:26.058Z,16.70
2017-08-09T04:23:57.252Z,16.60
2017-08-09T04:26:26.961Z,16.60
2017-08-09T04:28:56.561Z,16.60
2017-08-09T04:31:25.954Z,16.60
2017-08-09T04:33:54.631Z,16.60
2017-08-09T04:36:23.485Z,16.60
2017-08-09T04:38:54.059Z,16.60
2017-08-09T04:41:23.645Z,16.60
2017-08-09T04:43:52.727Z,16.60
2017-08-09T04:46:22.919Z,16.60
2017-08-09T04:48:53.957Z,16.60
2017-08-09T04:51:24.151Z,16.50
2017-08-09T04:53:54.367Z,16.50
2017-08-09T04:56:24.553Z,16.50
2017-08-09T04:58:54.842Z,16.50
2017-08-09T05:01:24.442Z,16.40
2017-08-09T05:03:53.595Z,16.40
2017-08-09T05:06:23.302Z,16.50
2017-08-09T05:08:52.634Z,16.40
2017-08-09T05:11:22.047Z,16.40
2017-08-09T05:13:52.767Z,16.40
2017-08-09T05:16:22.601Z,16.40
2017-08-09T05:18:51.436Z,16.40
2017-08-09T05:21:20.905Z,16.40
2017-08-09T05:23:50.298Z,16.40
2017-08-09T05:26:19.734Z,16.30
2017-08-09T05:28:49.001Z,16.30
2017-08-09T05:31:17.751Z,16.30
2017-08-09T05:33:46.204Z,16.30
2017-08-09T05:36:16.110Z,16.30
2017-08-09T05:38:44.460Z,16.30
2017-08-09T05:41:12.773Z,16.30
2017-08-09T05:43:41.553Z,16.30
2017-08-09T05:46:09.903Z,16.20
2017-08-09T05:48:38.236Z,16.30
2017-08-09T05:51:07.770Z,16.30
2017-08-09T05:53:36.114Z,16.30
2017-08-09T05:56:04.869Z,16.30
2017-08-09T05:58:34.561Z,16.30
2017-08-09T06:01:03.148Z,16.40
2017-08-09T06:03:31.523Z,16.40
2017-08-09T06:06:00.124Z,16.40
2017-08-09T06:08:28.691Z,16.50
2017-08-09T06:10:57.948Z,16.60
2017-08-09T06:13:27.434Z,16.60
2017-08-09T06:15:56.116Z,16.60
2017-08-09T06:18:25.293Z,16.60
2017-08-09T06:20:54.921Z,16.70
2017-08-09T06:23:24.094Z,16.80
2017-08-09T06:25:53.188Z,16.80
2017-08-09T06:28:22.589Z,16.90
2017-08-09T06:30:50.971Z,16.90
2017-08-09T06:33:19.427Z,17.00
2017-08-09T06:35:48.525Z,17.00
2017-08-09T06:38:16.865Z,17.00
2017-08-09T06:40:46.004Z,17.00
2017-08-09T06:43:15.777Z,17.00
2017-08-09T06:45:45.133Z,17.00
2017-08-09T06:48:13.480Z,17.00
2017-08-09T06:50:43.008Z,17.00
2017-08-09T06:53:11.337Z,17.00
2017-08-09T06:55:40.428Z,17.10
2017-08-09T06:58:10.810Z,17.10
2017-08-09T07:00:39.128Z,17.10
2017-08-09T07:03:07.464Z,17.20
2017-08-09T07:05:37.237Z,17.20
2017-08-09T07:08:05.730Z,17.30
2017-08-09T07:10:34.097Z,17.50
2017-08-09T07:13:02.877Z,17.60
2017-08-09T07:15:31.227Z,17.70
2017-08-09T07:17:59.586Z,17.70
2017-08-09T07:20:29.711Z,17.80
2017-08-09T07:22:58.131Z,17.90
2017-08-09T07:25:27.383Z,18.10
2017-08-09T07:27:57.106Z,18.10
2017-08-09T07:30:26.383Z,18.20
2017-08-09T07:32:55.005Z,18.20
2017-08-09T07:35:24.409Z,18.20
2017-08-09T07:37:53.901Z,18.20
2017-08-09T07:40:22.600Z,18.30
2017-08-09T07:42:51.807Z,18.40
2017-08-09T07:45:20.242Z,18.40
2017-08-09T07:47:48.827Z,18.40
2017-08-09T07:50:18.759Z,18.50
2017-08-09T07:52:47.111Z,18.60
2017-08-09T07:55:15.440Z,18.50
2017-08-09T07:57:43.904Z,18.40
2017-08-09T08:00:12.252Z,18.40
2017-08-09T08:02:41.309Z,18.50
2017-08-09T08:05:10.102Z,18.60
2017-08-09T08:07:38.416Z,18.70
2017-08-09T08:10:06.777Z,18.80
2017-08-09T08:12:36.196Z,19.00
2017-08-09T08:15:04.561Z,19.00
2017-08-09T08:17:33.152Z,19.10
2017-08-09T08:20:02.752Z,19.10
2017-08-09T08:22:31.236Z,19.20
2017-08-09T08:25:00.775Z,19.30
2017-08-09T08:27:29.806Z,19.30
2017-08-09T08:29:59.272Z,19.60
2017-08-09T08:32:28.483Z,19.60
2017-08-09T08:34:58.858Z,19.50
2017-08-09T08:37:27.247Z,19.60
2017-08-09T08:39:56.453Z,19.70
2017-08-09T08:42:25.330Z,19.70
2017-08-09T08:44:54.027Z,19.90
2017-08-09T08:47:22.880Z,19.90
2017-08-09T08:49:53.003Z,20.00
2017-08-09T08:52:21.889Z,20.20
2017-08-09T08:54:51.504Z,20.40
2017-08-09T08:57:21.005Z,20.30
2017-08-09T08:59:49.737Z,20.40
2017-08-09T09:02:18.182Z,20.40
2017-08-09T09:04:46.804Z,20.50
2017-08-09T09:07:15.193Z,20.70
2017-08-09T09:09:44.296Z,20.90
2017-08-09T09:12:13.006Z,20.90
2017-08-09T09:14:41.338Z,21.00
2017-08-09T09:17:09.704Z,20.90
2017-08-09T09:19:38.189Z,20.80
2017-08-09T09:22:06.529Z,20.80
2017-08-09T09:24:34.898Z,20.80
2017-08-09T09:27:03.412Z,20.80
2017-08-09T09:29:31.968Z,20.90
2017-08-09T09:32:01.576Z,20.90
2017-08-09T09:34:31.545Z,21.10
2017-08-09T09:37:00.328Z,21.40
2017-08-09T09:39:29.073Z,22.00
2017-08-09T09:41:58.596Z,22.80
2017-08-09T09:44:28.843Z,22.80
2017-08-09T09:46:57.962Z,23.90
2017-08-09T09:49:26.653Z,23.80
2017-08-09T09:51:55.060Z,24.30
2017-08-09T09:54:24.485Z,24.60
2017-08-09T09:56:53.614Z,24.60
2017-08-09T09:59:23.636Z,25.10
2017-08-09T10:01:52.504Z,25.30
2017-08-09T10:04:22.029Z,25.50
2017-08-09T10:06:50.634Z,25.80
2017-08-09T10:09:19.196Z,26.10
2017-08-09T10:11:48.802Z,25.90
2017-08-09T10:14:17.928Z,26.00
2017-08-09T10:16:46.747Z,26.00
2017-08-09T10:19:16.154Z,25.90
2017-08-09T10:21:47.736Z,26.00
2017-08-09T10:24:16.139Z,26.10
2017-08-09T10:26:44.877Z,26.20
2017-08-09T10:29:14.278Z,26.70
2017-08-09T10:31:42.611Z,27.00
2017-08-09T10:34:11.370Z,26.80
2017-08-09T10:36:39.689Z,26.90
2017-08-09T10:39:08.024Z,26.70
2017-08-09T10:41:38.344Z,26.70
2017-08-09T10:44:06.703Z,26.20
2017-08-09T10:46:35.065Z,26.70
2017-08-09T10:49:03.554Z,27.50
2017-08-09T10:51:31.874Z,27.80
2017-08-09T10:54:00.255Z,27.70
2017-08-09T10:56:29.350Z,27.20
2017-08-09T10:58:57.822Z,26.90
2017-08-09T11:01:26.507Z,26.20
2017-08-09T11:03:56.181Z,25.40
2017-08-09T11:06:24.983Z,24.70
2017-08-09T11:08:53.669Z,24.50
2017-08-09T11:11:23.430Z,24.80
2017-08-09T11:13:52.524Z,25.50
2017-08-09T11:16:21.580Z,25.80
2017-08-09T11:18:50.810Z,26.30
2017-08-09T11:21:20.277Z,26.90
2017-08-09T11:23:48.797Z,27.20
2017-08-09T11:26:17.816Z,27.20
2017-08-09T11:28:46.225Z,27.40
2017-08-09T11:31:14.569Z,27.60
2017-08-09T11:33:44.072Z,25.90
2017-08-09T11:36:13.273Z,25.90
2017-08-09T11:38:41.583Z,25.10
2017-08-09T11:41:10.466Z,24.60
2017-08-09T11:43:39.589Z,25.40
2017-08-09T11:46:07.930Z,25.40
2017-08-09T11:48:36.781Z,25.90
2017-08-09T11:51:05.900Z,26.90
2017-08-09T11:53:34.229Z,26.90
2017-08-09T11:56:02.861Z,27.40
2017-08-09T11:58:32.323Z,27.60
2017-08-09T12:01:00.881Z,27.70
2017-08-09T12:03:30.993Z,27.90
2017-08-09T12:05:59.450Z,28.10
2017-08-09T12:08:27.858Z,28.10
2017-08-09T12:10:57.564Z,27.50
2017-08-09T12:13:27.052Z,26.60
2017-08-09T12:15:55.537Z,26.50
2017-08-09T12:18:25.576Z,26.70
2017-08-09T12:20:55.109Z,26.20
2017-08-09T12:23:24.772Z,26.30
2017-08-09T12:25:54.059Z,26.30
2017-08-09T12:28:23.045Z,26.20
2017-08-09T12:30:51.831Z,26.30
2017-08-09T12:33:21.660Z,26.60
2017-08-09T12:35:50.789Z,26.60
2017-08-09T12:38:21.578Z,26.70
2017-08-09T12:40:51.042Z,26.60
2017-08-09T12:43:20.325Z,26.80
2017-08-09T12:45:50.055Z,27.10
2017-08-09T12:48:20.479Z,27.30
2017-08-09T12:50:48.933Z,27.30
2017-08-09T12:53:17.284Z,27.70
2017-08-09T12:55:46.415Z,27.60
2017-08-09T12:58:14.742Z,27.70
2017-08-09T13:00:43.138Z,27.10
2017-08-09T13:03:11.902Z,26.90
2017-08-09T13:05:40.410Z,27.00
2017-08-09T13:08:08.722Z,27.40
2017-08-09T13:10:37.211Z,27.60
2017-08-09T13:13:05.548Z,27.40
2017-08-09T13:15:34.029Z,27.50
2017-08-09T13:18:02.542Z,27.30
2017-08-09T13:20:31.734Z,26.40
2017-08-09T13:23:00.093Z,26.30
2017-08-09T13:25:28.645Z,26.70
2017-08-09T13:27:57.249Z,26.80
2017-08-09T13:30:25.767Z,26.20
2017-08-09T13:32:56.416Z,25.60
2017-08-09T13:35:25.108Z,25.60
2017-08-09T13:37:53.976Z,25.60
2017-08-09T13:40:23.277Z,24.90
2017-08-09T13:42:51.985Z,25.10
2017-08-09T13:45:20.702Z,24.80
2017-08-09T13:47:51.033Z,25.50
2017-08-09T13:50:20.685Z,25.50
2017-08-09T13:52:49.258Z,25.40
2017-08-09T13:55:19.028Z,25.70
2017-08-09T13:57:47.468Z,25.90
2017-08-09T14:00:16.352Z,26.20
2017-08-09T14:02:45.808Z,26.70
2017-08-09T14:05:14.134Z,27.00
2017-08-09T14:07:42.461Z,27.30
2017-08-09T14:10:11.136Z,27.60
2017-08-09T14:12:39.460Z,27.90
2017-08-09T14:15:07.801Z,27.80
2017-08-09T14:17:36.853Z,27.70
2017-08-09T14:20:05.199Z,27.60
2017-08-09T14:22:33.517Z,27.50
2017-08-09T14:25:02.010Z,28.00
2017-08-09T14:27:30.328Z,28.60
2017-08-09T14:29:59.524Z,28.20
2017-08-09T14:32:28.673Z,28.10
2017-08-09T14:34:57.106Z,28.10
2017-08-09T14:37:27.512Z,28.30
2017-08-09T14:39:56.563Z,28.70
2017-08-09T14:42:25.256Z,28.40
2017-08-09T14:44:53.722Z,28.70
2017-08-09T14:47:23.849Z,29.40
2017-08-09T14:49:52.432Z,29.20
2017-08-09T14:52:21.853Z,29.10
2017-08-09T14:54:52.859Z,28.80
2017-08-09T14:57:22.491Z,28.30
2017-08-09T14:59:54.146Z,26.70
2017-08-09T15:02:23.797Z,26.40
2017-08-09T15:04:52.483Z,26.30
2017-08-09T15:07:22.282Z,26.50
2017-08-09T15:09:52.605Z,26.20
2017-08-09T15:12:21.649Z,26.20
2017-08-09T15:14:51.667Z,26.80
2017-08-09T15:17:20.445Z,27.10
2017-08-09T15:19:49.959Z,27.40
2017-08-09T15:22:21.903Z,27.30
2017-08-09T15:24:50.808Z,27.30
2017-08-09T15:27:19.799Z,27.20
2017-08-09T15:29:49.189Z,27.20
2017-08-09T15:32:17.589Z,27.30
2017-08-09T15:34:46.756Z,26.70
2017-08-09T15:37:16.117Z,26.50
2017-08-09T15:39:45.206Z,26.60
2017-08-09T15:42:14.744Z,26.60
2017-08-09T15:44:45.498Z,26.50
2017-08-09T15:47:13.933Z,26.50
2017-08-09T15:49:42.271Z,26.50
2017-08-09T15:52:11.203Z,26.70
2017-08-09T15:54:40.360Z,27.20
2017-08-09T15:57:08.766Z,27.10
2017-08-09T15:59:37.576Z,26.80
2017-08-09T16:02:06.303Z,27.20
2017-08-09T16:04:35.412Z,26.80
2017-08-09T16:07:05.668Z,26.20
2017-08-09T16:09:34.012Z,26.20
2017-08-09T16:12:02.984Z,25.50
2017-08-09T16:14:31.967Z,25.10
2017-08-09T16:17:00.429Z,24.60
2017-08-09T16:19:29.904Z,24.20
2017-08-09T16:21:58.873Z,24.20
2017-08-09T16:24:27.531Z,24.00
2017-08-09T16:26:56.597Z,23.70
2017-08-09T16:29:26.800Z,23.30
2017-08-09T16:31:56.063Z,23.30
2017-08-09T16:34:24.760Z,23.30
2017-08-09T16:36:54.201Z,23.30
2017-08-09T16:39:23.422Z,23.30
2017-08-09T16:41:53.103Z,23.00
2017-08-09T16:44:22.580Z,23.00
2017-08-09T16:46:52.386Z,22.90
2017-08-09T16:49:21.864Z,22.90
2017-08-09T16:51:54.743Z,22.90
2017-08-09T16:54:24.574Z,23.00
2017-08-09T16:56:53.752Z,22.90
2017-08-09T16:59:23.034Z,22.90
2017-08-09T17:01:51.547Z,22.80
2017-08-09T17:04:20.381Z,22.70
2017-08-09T17:06:51.312Z,22.50
2017-08-09T17:09:20.041Z,22.40
2017-08-09T17:11:50.871Z,22.40
2017-08-09T17:14:20.480Z,22.30
2017-08-09T17:16:50.177Z,22.20
2017-08-09T17:19:18.618Z,22.20
2017-08-09T17:21:47.177Z,22.20
2017-08-09T17:24:15.499Z,22.10
2017-08-09T17:26:43.883Z,22.30
2017-08-09T17:29:12.615Z,22.40
2017-08-09T17:31:41.722Z,22.40
2017-08-09T17:34:10.094Z,22.40
2017-08-09T17:36:39.772Z,22.40
2017-08-09T17:39:08.362Z,22.30
2017-08-09T17:41:36.733Z,22.40
2017-08-09T17:44:06.170Z,22.40
2017-08-09T17:46:34.787Z,22.30
2017-08-09T17:49:03.989Z,22.20
2017-08-09T17:51:32.774Z,22.20
2017-08-09T17:54:01.152Z,22.10
2017-08-09T17:56:29.844Z,22.00
2017-08-09T17:58:59.725Z,21.90
2017-08-09T18:01:29.488Z,21.80
2017-08-09T18:03:59.947Z,21.80
2017-08-09T18:06:29.200Z,21.70
2017-08-09T18:08:57.763Z,21.70
2017-08-09T18:11:26.617Z,21.70
2017-08-09T18:13:55.804Z,21.60
2017-08-09T18:16:28.475Z,21.60
2017-08-09T18:18:57.563Z,21.60
2017-08-09T18:21:27.139Z,21.50
2017-08-09T18:23:55.953Z,21.50
2017-08-09T18:26:25.224Z,21.40
2017-08-09T18:28:53.732Z,21.30
2017-08-09T18:31:22.550Z,21.20
2017-08-09T18:33:51.831Z,21.00
2017-08-09T18:36:21.001Z,20.90
2017-08-09T18:38:50.222Z,20.80
2017-08-09T18:41:19.157Z,20.70
2017-08-09T18:43:47.569Z,20.60
2017-08-09T18:46:16.682Z,20.30
2017-08-09T18:48:47.066Z,20.30
2017-08-09T18:51:16.254Z,20.20
2017-08-09T18:53:45.404Z,20.20
2017-08-09T18:56:14.658Z,20.10
2017-08-09T18:58:48.239Z,20.20
2017-08-09T19:01:17.379Z,20.10
2017-08-09T19:03:46.656Z,20.00
2017-08-09T19:06:14.968Z,20.10
2017-08-09T19:08:43.540Z,20.00
2017-08-09T19:11:11.894Z,19.90
2017-08-09T19:13:40.220Z,19.90
2017-08-09T19:16:09.572Z,19.70
2017-08-09T19:18:37.926Z,19.70
2017-08-09T19:21:06.247Z,19.70
2017-08-09T19:23:35.004Z,19.60
2017-08-09T19:26:04.106Z,19.50
2017-08-09T19:28:32.718Z,19.50
2017-08-09T19:31:01.227Z,19.50
2017-08-09T19:33:29.796Z,19.40
2017-08-09T19:35:58.381Z,19.40
2017-08-09T19:38:27.206Z,19.30
2017-08-09T19:40:56.512Z,19.30
2017-08-09T19:43:25.685Z,19.30
2017-08-09T19:45:57.061Z,19.20
2017-08-09T19:48:26.946Z,19.20
2017-08-09T19:50:56.458Z,19.20
2017-08-09T19:53:26.211Z,19.20
2017-08-09T19:55:55.429Z,19.10
2017-08-09T19:58:24.089Z,19.00
2017-08-09T20:00:52.922Z,19.00
2017-08-09T20:03:22.055Z,19.00
2017-08-09T20:05:50.782Z,18.90
2017-08-09T20:08:19.496Z,18.80
2017-08-09T20:10:47.874Z,18.80
2017-08-09T20:13:17.289Z,18.80
2017-08-09T20:15:46.557Z,18.70
2017-08-09T20:18:14.904Z,18.80
2017-08-09T20:20:43.299Z,18.70
2017-08-09T20:23:12.566Z,18.70
2017-08-09T20:25:40.917Z,18.70
2017-08-09T20:28:09.241Z,18.70
2017-08-09T20:30:39.322Z,18.70
2017-08-09T20:33:07.637Z,18.60
2017-08-09T20:35:35.974Z,18.60
2017-08-09T20:38:05.105Z,18.50
2017-08-09T20:40:33.474Z,18.40
2017-08-09T20:43:01.865Z,18.40
2017-08-09T20:45:30.533Z,18.40
2017-08-09T20:47:59.010Z,18.30
2017-08-09T20:50:28.159Z,18.10
2017-08-09T20:52:59.688Z,18.10
2017-08-09T20:55:28.396Z,18.10
2017-08-09T20:57:57.014Z,18.10
2017-08-09T21:00:25.665Z,18.00
2017-08-09T21:02:54.335Z,17.90
2017-08-09T21:05:22.905Z,17.90
2017-08-09T21:07:52.104Z,17.80
2017-08-09T21:10:21.215Z,17.80
2017-08-09T21:12:49.989Z,17.70
2017-08-09T21:15:18.921Z,17.70
2017-08-09T21:17:47.285Z,17.60
2017-08-09T21:20:16.664Z,17.60
2017-08-09T21:22:47.467Z,17.50
2017-08-09T21:25:16.616Z,17.40
2017-08-09T21:27:44.943Z,17.40
2017-08-09T21:30:13.823Z,17.40
2017-08-09T21:32:42.166Z,17.40
2017-08-09T21:35:10.564Z,17.40
2017-08-09T21:37:39.029Z,17.40
2017-08-09T21:40:07.352Z,17.40
2017-08-09T21:42:35.722Z,17.40
2017-08-09T21:45:05.054Z,17.30
2017-08-09T21:47:33.551Z,17.40
2017-08-09T21:50:02.043Z,17.40
2017-08-09T21:52:30.905Z,17.30
2017-08-09T21:54:59.531Z,17.30
2017-08-09T21:57:28.762Z,17.30
2017-08-09T21:59:57.209Z,17.30
2017-08-09T22:02:25.972Z,17.30
2017-08-09T22:04:54.580Z,17.30
2017-08-09T22:07:24.974Z,17.20
2017-08-09T22:09:53.701Z,17.20
2017-08-09T22:12:22.241Z,17.20
2017-08-09T22:14:51.658Z,17.20
2017-08-09T22:17:20.506Z,17.20
2017-08-09T22:19:48.947Z,17.20
2017-08-09T22:22:17.575Z,17.20
2017-08-09T22:24:45.993Z,17.10
2017-08-09T22:27:14.321Z,17.00
2017-08-09T22:29:43.451Z,16.90
2017-08-09T22:32:12.786Z,16.90
2017-08-09T22:34:41.097Z,16.90
2017-08-09T22:37:09.665Z,16.90
2017-08-09T22:39:38.018Z,16.90
2017-08-09T22:42:06.383Z,16.80
2017-08-09T22:44:34.977Z,16.80
2017-08-09T22:47:03.349Z,16.70
2017-08-09T22:49:31.941Z,16.70
2017-08-09T22:52:00.834Z,16.70
2017-08-09T22:54:29.347Z,16.70
2017-08-09T22:56:57.769Z,16.70
2017-08-09T22:59:26.922Z,16.70
2017-08-09T23:01:55.704Z,16.70
2017-08-09T23:04:24.897Z,16.70
2017-08-09T23:06:58.434Z,16.70
2017-08-09T23:09:27.895Z,16.70
2017-08-09T23:11:57.347Z,16.60
2017-08-09T23:14:26.405Z,16.60
2017-08-09T23:16:55.070Z,16.60
2017-08-09T23:19:24.447Z,16.60
2017-08-09T23:21:53.933Z,16.50
2017-08-09T23:24:22.467Z,16.50
2017-08-09T23:26:51.228Z,16.50
2017-08-09T23:29:21.546Z,16.40
2017-08-09T23:31:50.989Z,16.40
2017-08-09T23:34:19.776Z,16.40
2017-08-09T23:36:48.519Z,16.30
2017-08-09T23:39:16.860Z,16.30
2017-08-09T23:41:45.256Z,16.20
2017-08-09T23:44:13.997Z,16.20
2017-08-09T23:46:42.349Z,16.20
2017-08-09T23:49:10.706Z,16.30
2017-08-09T23:51:39.515Z,16.30
2017-08-09T23:54:07.941Z,16.30
2017-08-09T23:56:36.297Z,16.20
2017-08-09T23:59:04.964Z,16.20
